sensor_id;sensor_type;location;lat;lon;timestamp;P1;durP1;ratioP1;P2;durP2;ratioP2
12910;SDS011;6523;49.758;6.120;2023-11-19T00:01:34;0.70;;;0.70;;
12910;SDS011;6523;49.758;6.120;2023-11-19T00:04:00;0.40;;;0.40;;
12910;SDS011;6523;49.758;6.120;2023-11-19T00:06:25;0.97;;;0.70;;
12910;SDS011;6523;49.758;6.120;2023-11-19T00:08:51;0.50;;;0.50;;
12910;SDS011;6523;49.758;6.120;2023-11-19T00:11:16;0.70;;;0.70;;
12910;SDS011;6523;49.758;6.120;2023-11-19T00:13:42;0.60;;;0.60;;
12910;SDS011;6523;49.758;6.120;2023-11-19T00:16:08;0.70;;;0.50;;
12910;SDS011;6523;49.758;6.120;2023-11-19T00:18:34;0.60;;;0.60;;
12910;SDS011;6523;49.758;6.120;2023-11-19T00:21:01;0.60;;;0.60;;
12910;SDS011;6523;49.758;6.120;2023-11-19T00:23:27;0.70;;;0.50;;
12910;SDS011;6523;49.758;6.120;2023-11-19T00:25:53;0.67;;;0.60;;
12910;SDS011;6523;49.758;6.120;2023-11-19T00:28:18;0.70;;;0.70;;
12910;SDS011;6523;49.758;6.120;2023-11-19T00:30:44;1.43;;;0.60;;
12910;SDS011;6523;49.758;6.120;2023-11-19T00:33:09;0.60;;;0.60;;
12910;SDS011;6523;49.758;6.120;2023-11-19T00:35:35;0.90;;;0.53;;
12910;SDS011;6523;49.758;6.120;2023-11-19T00:38:01;0.70;;;0.70;;
12910;SDS011;6523;49.758;6.120;2023-11-19T00:40:27;1.60;;;0.60;;
12910;SDS011;6523;49.758;6.120;2023-11-19T00:42:53;0.80;;;0.80;;
12910;SDS011;6523;49.758;6.120;2023-11-19T00:45:19;1.43;;;0.70;;
12910;SDS011;6523;49.758;6.120;2023-11-19T00:47:44;1.27;;;0.70;;
12910;SDS011;6523;49.758;6.120;2023-11-19T00:50:10;0.60;;;0.60;;
12910;SDS011;6523;49.758;6.120;2023-11-19T00:52:36;0.60;;;0.60;;
12910;SDS011;6523;49.758;6.120;2023-11-19T00:55:02;1.53;;;0.60;;
12910;SDS011;6523;49.758;6.120;2023-11-19T00:57:29;0.70;;;0.70;;
12910;SDS011;6523;49.758;6.120;2023-11-19T00:59:57;0.70;;;0.70;;
12910;SDS011;6523;49.758;6.120;2023-11-19T01:02:23;0.63;;;0.63;;
12910;SDS011;6523;49.758;6.120;2023-11-19T01:04:49;0.77;;;0.77;;
12910;SDS011;6523;49.758;6.120;2023-11-19T01:07:15;0.70;;;0.70;;
12910;SDS011;6523;49.758;6.120;2023-11-19T01:09:41;0.70;;;0.70;;
12910;SDS011;6523;49.758;6.120;2023-11-19T01:12:07;0.73;;;0.73;;
12910;SDS011;6523;49.758;6.120;2023-11-19T01:14:34;1.17;;;0.80;;
12910;SDS011;6523;49.758;6.120;2023-11-19T01:17:00;0.80;;;0.80;;
12910;SDS011;6523;49.758;6.120;2023-11-19T01:19:26;1.27;;;0.70;;
12910;SDS011;6523;49.758;6.120;2023-11-19T01:21:53;0.80;;;0.80;;
12910;SDS011;6523;49.758;6.120;2023-11-19T01:24:19;1.70;;;0.90;;
12910;SDS011;6523;49.758;6.120;2023-11-19T01:26:45;1.83;;;0.90;;
12910;SDS011;6523;49.758;6.120;2023-11-19T01:29:11;1.13;;;0.80;;
12910;SDS011;6523;49.758;6.120;2023-11-19T01:31:45;1.17;;;1.07;;
12910;SDS011;6523;49.758;6.120;2023-11-19T01:34:11;1.10;;;1.00;;
12910;SDS011;6523;49.758;6.120;2023-11-19T01:36:38;0.90;;;0.90;;
12910;SDS011;6523;49.758;6.120;2023-11-19T01:39:04;0.87;;;0.87;;
12910;SDS011;6523;49.758;6.120;2023-11-19T01:41:33;1.30;;;1.20;;
12910;SDS011;6523;49.758;6.120;2023-11-19T01:44:00;1.00;;;1.00;;
12910;SDS011;6523;49.758;6.120;2023-11-19T01:46:26;1.23;;;1.13;;
12910;SDS011;6523;49.758;6.120;2023-11-19T01:48:52;1.40;;;1.30;;
12910;SDS011;6523;49.758;6.120;2023-11-19T01:51:19;1.57;;;1.47;;
12910;SDS011;6523;49.758;6.120;2023-11-19T01:53:46;1.53;;;1.43;;
12910;SDS011;6523;49.758;6.120;2023-11-19T01:56:13;3.10;;;2.60;;
12910;SDS011;6523;49.758;6.120;2023-11-19T01:58:40;2.83;;;2.07;;
12910;SDS011;6523;49.758;6.120;2023-11-19T02:01:06;3.93;;;2.00;;
12910;SDS011;6523;49.758;6.120;2023-11-19T02:03:32;2.73;;;2.13;;
12910;SDS011;6523;49.758;6.120;2023-11-19T02:05:59;1.60;;;1.50;;
12910;SDS011;6523;49.758;6.120;2023-11-19T02:08:25;2.17;;;1.97;;
12910;SDS011;6523;49.758;6.120;2023-11-19T02:10:51;2.23;;;2.03;;
12910;SDS011;6523;49.758;6.120;2023-11-19T02:13:17;2.97;;;1.87;;
12910;SDS011;6523;49.758;6.120;2023-11-19T02:15:46;2.60;;;1.67;;
12910;SDS011;6523;49.758;6.120;2023-11-19T02:18:21;2.90;;;2.37;;
12910;SDS011;6523;49.758;6.120;2023-11-19T02:20:53;2.77;;;1.80;;
12910;SDS011;6523;49.758;6.120;2023-11-19T02:23:19;1.77;;;1.60;;
12910;SDS011;6523;49.758;6.120;2023-11-19T02:25:56;1.70;;;1.60;;
12910;SDS011;6523;49.758;6.120;2023-11-19T02:28:24;1.97;;;1.87;;
12910;SDS011;6523;49.758;6.120;2023-11-19T02:30:50;2.30;;;1.93;;
12910;SDS011;6523;49.758;6.120;2023-11-19T02:33:15;2.30;;;2.10;;
12910;SDS011;6523;49.758;6.120;2023-11-19T02:35:41;3.20;;;2.20;;
12910;SDS011;6523;49.758;6.120;2023-11-19T02:38:06;2.30;;;2.10;;
12910;SDS011;6523;49.758;6.120;2023-11-19T02:40:32;2.10;;;1.90;;
12910;SDS011;6523;49.758;6.120;2023-11-19T02:42:58;2.50;;;2.10;;
12910;SDS011;6523;49.758;6.120;2023-11-19T02:45:24;2.37;;;2.10;;
12910;SDS011;6523;49.758;6.120;2023-11-19T02:47:51;3.33;;;1.77;;
12910;SDS011;6523;49.758;6.120;2023-11-19T02:50:17;2.00;;;1.80;;
12910;SDS011;6523;49.758;6.120;2023-11-19T02:52:49;2.47;;;1.77;;
12910;SDS011;6523;49.758;6.120;2023-11-19T02:55:16;1.97;;;1.77;;
12910;SDS011;6523;49.758;6.120;2023-11-19T02:57:43;2.47;;;1.80;;
12910;SDS011;6523;49.758;6.120;2023-11-19T03:00:16;2.43;;;1.77;;
12910;SDS011;6523;49.758;6.120;2023-11-19T03:02:43;1.80;;;1.70;;
12910;SDS011;6523;49.758;6.120;2023-11-19T03:05:12;1.77;;;1.67;;
12910;SDS011;6523;49.758;6.120;2023-11-19T03:07:39;1.83;;;1.73;;
12910;SDS011;6523;49.758;6.120;2023-11-19T03:10:09;1.70;;;1.60;;
12910;SDS011;6523;49.758;6.120;2023-11-19T03:12:38;3.03;;;1.83;;
12910;SDS011;6523;49.758;6.120;2023-11-19T03:15:08;1.50;;;1.40;;
12910;SDS011;6523;49.758;6.120;2023-11-19T03:17:40;1.70;;;1.60;;
12910;SDS011;6523;49.758;6.120;2023-11-19T03:20:06;1.80;;;1.43;;
12910;SDS011;6523;49.758;6.120;2023-11-19T03:22:40;1.67;;;1.57;;
12910;SDS011;6523;49.758;6.120;2023-11-19T03:25:09;1.77;;;1.47;;
12910;SDS011;6523;49.758;6.120;2023-11-19T03:27:35;1.63;;;1.43;;
12910;SDS011;6523;49.758;6.120;2023-11-19T03:30:02;2.47;;;1.80;;
12910;SDS011;6523;49.758;6.120;2023-11-19T03:32:29;2.90;;;1.30;;
12910;SDS011;6523;49.758;6.120;2023-11-19T03:34:56;2.47;;;1.47;;
12910;SDS011;6523;49.758;6.120;2023-11-19T03:37:22;2.33;;;1.60;;
12910;SDS011;6523;49.758;6.120;2023-11-19T03:39:48;1.50;;;1.30;;
12910;SDS011;6523;49.758;6.120;2023-11-19T03:42:14;2.47;;;1.70;;
12910;SDS011;6523;49.758;6.120;2023-11-19T03:44:40;2.40;;;2.07;;
12910;SDS011;6523;49.758;6.120;2023-11-19T03:47:05;4.10;;;2.60;;
12910;SDS011;6523;49.758;6.120;2023-11-19T03:49:31;6.13;;;2.63;;
12910;SDS011;6523;49.758;6.120;2023-11-19T03:51:57;5.97;;;2.80;;
12910;SDS011;6523;49.758;6.120;2023-11-19T03:54:22;4.20;;;3.00;;
12910;SDS011;6523;49.758;6.120;2023-11-19T03:56:48;3.70;;;2.83;;
12910;SDS011;6523;49.758;6.120;2023-11-19T03:59:14;5.93;;;3.20;;
12910;SDS011;6523;49.758;6.120;2023-11-19T04:01:40;7.10;;;3.40;;
12910;SDS011;6523;49.758;6.120;2023-11-19T04:04:06;8.57;;;3.40;;
12910;SDS011;6523;49.758;6.120;2023-11-19T04:06:31;12.17;;;7.10;;
12910;SDS011;6523;49.758;6.120;2023-11-19T04:08:57;6.60;;;4.67;;
12910;SDS011;6523;49.758;6.120;2023-11-19T04:11:23;7.67;;;3.50;;
12910;SDS011;6523;49.758;6.120;2023-11-19T04:13:48;5.40;;;2.60;;
12910;SDS011;6523;49.758;6.120;2023-11-19T04:16:14;3.43;;;3.00;;
12910;SDS011;6523;49.758;6.120;2023-11-19T04:18:39;4.47;;;2.90;;
12910;SDS011;6523;49.758;6.120;2023-11-19T04:21:06;3.27;;;2.57;;
12910;SDS011;6523;49.758;6.120;2023-11-19T04:23:32;3.30;;;2.80;;
12910;SDS011;6523;49.758;6.120;2023-11-19T04:25:57;5.13;;;3.70;;
12910;SDS011;6523;49.758;6.120;2023-11-19T04:28:23;9.27;;;4.73;;
12910;SDS011;6523;49.758;6.120;2023-11-19T04:30:52;14.17;;;8.97;;
12910;SDS011;6523;49.758;6.120;2023-11-19T04:33:17;2.80;;;2.57;;
12910;SDS011;6523;49.758;6.120;2023-11-19T04:35:43;3.03;;;1.90;;
12910;SDS011;6523;49.758;6.120;2023-11-19T04:38:08;2.20;;;1.60;;
12910;SDS011;6523;49.758;6.120;2023-11-19T04:40:34;1.80;;;1.70;;
12910;SDS011;6523;49.758;6.120;2023-11-19T04:42:59;4.20;;;1.60;;
12910;SDS011;6523;49.758;6.120;2023-11-19T04:45:25;1.73;;;1.40;;
12910;SDS011;6523;49.758;6.120;2023-11-19T04:47:51;1.53;;;1.37;;
12910;SDS011;6523;49.758;6.120;2023-11-19T04:50:16;1.40;;;1.30;;
12910;SDS011;6523;49.758;6.120;2023-11-19T04:52:42;3.53;;;2.23;;
12910;SDS011;6523;49.758;6.120;2023-11-19T04:55:10;1.77;;;1.50;;
12910;SDS011;6523;49.758;6.120;2023-11-19T04:57:37;2.30;;;1.50;;
12910;SDS011;6523;49.758;6.120;2023-11-19T05:00:03;2.03;;;1.83;;
12910;SDS011;6523;49.758;6.120;2023-11-19T05:02:30;3.97;;;1.33;;
12910;SDS011;6523;49.758;6.120;2023-11-19T05:04:55;1.40;;;0.87;;
12910;SDS011;6523;49.758;6.120;2023-11-19T05:07:21;2.40;;;1.37;;
12910;SDS011;6523;49.758;6.120;2023-11-19T05:09:47;4.03;;;1.30;;
12910;SDS011;6523;49.758;6.120;2023-11-19T05:12:12;3.07;;;1.30;;
12910;SDS011;6523;49.758;6.120;2023-11-19T05:14:38;2.00;;;1.27;;
12910;SDS011;6523;49.758;6.120;2023-11-19T05:17:03;1.93;;;1.30;;
12910;SDS011;6523;49.758;6.120;2023-11-19T05:19:29;1.50;;;1.40;;
12910;SDS011;6523;49.758;6.120;2023-11-19T05:21:55;3.27;;;1.53;;
12910;SDS011;6523;49.758;6.120;2023-11-19T05:24:20;2.83;;;1.60;;
12910;SDS011;6523;49.758;6.120;2023-11-19T05:26:46;3.70;;;2.10;;
12910;SDS011;6523;49.758;6.120;2023-11-19T05:29:12;2.20;;;1.40;;
12910;SDS011;6523;49.758;6.120;2023-11-19T05:31:38;1.70;;;1.30;;
12910;SDS011;6523;49.758;6.120;2023-11-19T05:34:03;3.37;;;1.33;;
12910;SDS011;6523;49.758;6.120;2023-11-19T05:36:30;3.03;;;1.47;;
12910;SDS011;6523;49.758;6.120;2023-11-19T05:38:55;3.77;;;1.60;;
12910;SDS011;6523;49.758;6.120;2023-11-19T05:41:21;3.83;;;2.20;;
12910;SDS011;6523;49.758;6.120;2023-11-19T05:43:46;3.83;;;1.80;;
12910;SDS011;6523;49.758;6.120;2023-11-19T05:46:12;1.97;;;1.17;;
12910;SDS011;6523;49.758;6.120;2023-11-19T05:48:38;3.03;;;1.33;;
12910;SDS011;6523;49.758;6.120;2023-11-19T05:51:04;3.80;;;1.80;;
12910;SDS011;6523;49.758;6.120;2023-11-19T05:53:30;2.80;;;1.50;;
12910;SDS011;6523;49.758;6.120;2023-11-19T05:55:56;3.20;;;1.70;;
12910;SDS011;6523;49.758;6.120;2023-11-19T05:58:25;2.57;;;1.60;;
12910;SDS011;6523;49.758;6.120;2023-11-19T06:00:53;7.37;;;1.97;;
12910;SDS011;6523;49.758;6.120;2023-11-19T06:03:19;4.23;;;1.50;;
12910;SDS011;6523;49.758;6.120;2023-11-19T06:05:46;4.87;;;1.90;;
12910;SDS011;6523;49.758;6.120;2023-11-19T06:08:12;4.00;;;1.43;;
12910;SDS011;6523;49.758;6.120;2023-11-19T06:10:41;4.17;;;1.57;;
12910;SDS011;6523;49.758;6.120;2023-11-19T06:13:08;4.07;;;1.70;;
12910;SDS011;6523;49.758;6.120;2023-11-19T06:15:36;2.13;;;1.93;;
12910;SDS011;6523;49.758;6.120;2023-11-19T06:18:01;5.13;;;2.00;;
12910;SDS011;6523;49.758;6.120;2023-11-19T06:20:28;6.30;;;1.80;;
12910;SDS011;6523;49.758;6.120;2023-11-19T06:22:55;6.63;;;1.83;;
12910;SDS011;6523;49.758;6.120;2023-11-19T06:25:21;4.77;;;1.93;;
12910;SDS011;6523;49.758;6.120;2023-11-19T06:27:49;7.27;;;2.00;;
12910;SDS011;6523;49.758;6.120;2023-11-19T06:30:15;5.77;;;1.70;;
12910;SDS011;6523;49.758;6.120;2023-11-19T06:32:40;4.77;;;1.60;;
12910;SDS011;6523;49.758;6.120;2023-11-19T06:35:06;3.20;;;1.70;;
12910;SDS011;6523;49.758;6.120;2023-11-19T06:37:32;4.30;;;1.30;;
12910;SDS011;6523;49.758;6.120;2023-11-19T06:39:57;2.37;;;1.60;;
12910;SDS011;6523;49.758;6.120;2023-11-19T06:42:23;4.13;;;1.53;;
12910;SDS011;6523;49.758;6.120;2023-11-19T06:44:48;5.43;;;1.93;;
12910;SDS011;6523;49.758;6.120;2023-11-19T06:47:14;5.30;;;1.63;;
12910;SDS011;6523;49.758;6.120;2023-11-19T06:49:40;5.67;;;1.77;;
12910;SDS011;6523;49.758;6.120;2023-11-19T06:52:08;6.90;;;1.97;;
12910;SDS011;6523;49.758;6.120;2023-11-19T06:54:34;4.60;;;1.50;;
12910;SDS011;6523;49.758;6.120;2023-11-19T06:56:59;4.17;;;1.77;;
12910;SDS011;6523;49.758;6.120;2023-11-19T06:59:25;3.57;;;1.57;;
12910;SDS011;6523;49.758;6.120;2023-11-19T07:01:50;3.80;;;1.63;;
12910;SDS011;6523;49.758;6.120;2023-11-19T07:04:16;4.43;;;1.50;;
12910;SDS011;6523;49.758;6.120;2023-11-19T07:06:41;7.70;;;2.30;;
12910;SDS011;6523;49.758;6.120;2023-11-19T07:09:07;5.10;;;1.77;;
12910;SDS011;6523;49.758;6.120;2023-11-19T07:11:37;5.80;;;2.00;;
12910;SDS011;6523;49.758;6.120;2023-11-19T07:14:03;3.73;;;1.57;;
12910;SDS011;6523;49.758;6.120;2023-11-19T07:16:29;5.33;;;1.90;;
12910;SDS011;6523;49.758;6.120;2023-11-19T07:18:55;4.97;;;1.60;;
12910;SDS011;6523;49.758;6.120;2023-11-19T07:21:21;5.63;;;1.73;;
12910;SDS011;6523;49.758;6.120;2023-11-19T07:23:46;7.20;;;1.57;;
12910;SDS011;6523;49.758;6.120;2023-11-19T07:26:12;3.10;;;1.67;;
12910;SDS011;6523;49.758;6.120;2023-11-19T07:28:37;4.33;;;1.40;;
12910;SDS011;6523;49.758;6.120;2023-11-19T07:31:04;5.40;;;1.67;;
12910;SDS011;6523;49.758;6.120;2023-11-19T07:33:32;3.07;;;1.33;;
12910;SDS011;6523;49.758;6.120;2023-11-19T07:35:58;3.43;;;1.63;;
12910;SDS011;6523;49.758;6.120;2023-11-19T07:38:24;3.50;;;1.23;;
12910;SDS011;6523;49.758;6.120;2023-11-19T07:40:49;4.30;;;1.47;;
12910;SDS011;6523;49.758;6.120;2023-11-19T07:43:15;2.47;;;1.53;;
12910;SDS011;6523;49.758;6.120;2023-11-19T07:45:41;5.63;;;1.60;;
12910;SDS011;6523;49.758;6.120;2023-11-19T07:48:08;5.03;;;1.80;;
12910;SDS011;6523;49.758;6.120;2023-11-19T07:50:35;4.13;;;1.60;;
12910;SDS011;6523;49.758;6.120;2023-11-19T07:53:00;3.97;;;1.60;;
12910;SDS011;6523;49.758;6.120;2023-11-19T07:55:27;7.03;;;1.73;;
12910;SDS011;6523;49.758;6.120;2023-11-19T07:57:52;6.27;;;2.07;;
12910;SDS011;6523;49.758;6.120;2023-11-19T08:00:18;6.83;;;1.53;;
12910;SDS011;6523;49.758;6.120;2023-11-19T08:02:44;4.30;;;1.87;;
12910;SDS011;6523;49.758;6.120;2023-11-19T08:05:10;5.40;;;1.70;;
12910;SDS011;6523;49.758;6.120;2023-11-19T08:07:36;4.70;;;1.60;;
12910;SDS011;6523;49.758;6.120;2023-11-19T08:10:02;4.37;;;1.70;;
12910;SDS011;6523;49.758;6.120;2023-11-19T08:12:30;2.93;;;1.60;;
12910;SDS011;6523;49.758;6.120;2023-11-19T08:14:56;5.10;;;2.00;;
12910;SDS011;6523;49.758;6.120;2023-11-19T08:17:23;2.20;;;1.60;;
12910;SDS011;6523;49.758;6.120;2023-11-19T08:19:49;6.47;;;2.30;;
12910;SDS011;6523;49.758;6.120;2023-11-19T08:22:16;7.07;;;2.10;;
12910;SDS011;6523;49.758;6.120;2023-11-19T08:24:44;5.50;;;2.20;;
12910;SDS011;6523;49.758;6.120;2023-11-19T08:27:10;5.00;;;2.00;;
12910;SDS011;6523;49.758;6.120;2023-11-19T08:29:35;5.27;;;1.70;;
12910;SDS011;6523;49.758;6.120;2023-11-19T08:32:01;9.90;;;2.33;;
12910;SDS011;6523;49.758;6.120;2023-11-19T08:34:28;9.33;;;1.90;;
12910;SDS011;6523;49.758;6.120;2023-11-19T08:36:54;8.83;;;2.10;;
12910;SDS011;6523;49.758;6.120;2023-11-19T08:39:20;3.40;;;1.80;;
12910;SDS011;6523;49.758;6.120;2023-11-19T08:41:48;5.40;;;2.40;;
12910;SDS011;6523;49.758;6.120;2023-11-19T08:44:13;6.57;;;2.47;;
12910;SDS011;6523;49.758;6.120;2023-11-19T08:46:45;6.30;;;1.93;;
12910;SDS011;6523;49.758;6.120;2023-11-19T08:49:14;8.37;;;2.63;;
12910;SDS011;6523;49.758;6.120;2023-11-19T08:51:40;6.77;;;2.73;;
12910;SDS011;6523;49.758;6.120;2023-11-19T08:54:06;5.70;;;2.30;;
12910;SDS011;6523;49.758;6.120;2023-11-19T08:56:32;7.47;;;2.20;;
12910;SDS011;6523;49.758;6.120;2023-11-19T08:58:59;3.07;;;1.60;;
12910;SDS011;6523;49.758;6.120;2023-11-19T09:01:25;5.43;;;1.80;;
12910;SDS011;6523;49.758;6.120;2023-11-19T09:03:50;5.73;;;1.67;;
12910;SDS011;6523;49.758;6.120;2023-11-19T09:06:17;4.43;;;1.43;;
12910;SDS011;6523;49.758;6.120;2023-11-19T09:08:42;8.63;;;2.07;;
12910;SDS011;6523;49.758;6.120;2023-11-19T09:11:08;6.80;;;1.60;;
12910;SDS011;6523;49.758;6.120;2023-11-19T09:13:34;5.80;;;1.70;;
12910;SDS011;6523;49.758;6.120;2023-11-19T09:16:00;6.23;;;1.43;;
12910;SDS011;6523;49.758;6.120;2023-11-19T09:18:28;6.27;;;1.60;;
12910;SDS011;6523;49.758;6.120;2023-11-19T09:20:57;10.17;;;2.37;;
12910;SDS011;6523;49.758;6.120;2023-11-19T09:23:23;4.87;;;1.50;;
12910;SDS011;6523;49.758;6.120;2023-11-19T09:25:54;10.17;;;2.17;;
12910;SDS011;6523;49.758;6.120;2023-11-19T09:28:20;6.40;;;1.90;;
12910;SDS011;6523;49.758;6.120;2023-11-19T09:30:45;7.10;;;2.40;;
12910;SDS011;6523;49.758;6.120;2023-11-19T09:33:11;5.87;;;1.50;;
12910;SDS011;6523;49.758;6.120;2023-11-19T09:35:36;8.47;;;1.80;;
12910;SDS011;6523;49.758;6.120;2023-11-19T09:38:02;7.53;;;1.70;;
12910;SDS011;6523;49.758;6.120;2023-11-19T09:40:27;6.73;;;1.77;;
12910;SDS011;6523;49.758;6.120;2023-11-19T09:42:53;9.30;;;2.30;;
12910;SDS011;6523;49.758;6.120;2023-11-19T09:45:20;5.63;;;2.03;;
12910;SDS011;6523;49.758;6.120;2023-11-19T09:47:49;6.60;;;2.73;;
12910;SDS011;6523;49.758;6.120;2023-11-19T09:50:18;7.87;;;2.33;;
12910;SDS011;6523;49.758;6.120;2023-11-19T09:52:44;7.80;;;2.10;;
12910;SDS011;6523;49.758;6.120;2023-11-19T09:55:11;7.90;;;2.50;;
12910;SDS011;6523;49.758;6.120;2023-11-19T09:57:40;5.37;;;2.20;;
12910;SDS011;6523;49.758;6.120;2023-11-19T10:00:09;9.37;;;2.17;;
12910;SDS011;6523;49.758;6.120;2023-11-19T10:02:36;8.80;;;2.20;;
12910;SDS011;6523;49.758;6.120;2023-11-19T10:05:03;7.13;;;2.23;;
12910;SDS011;6523;49.758;6.120;2023-11-19T10:07:31;9.37;;;2.30;;
12910;SDS011;6523;49.758;6.120;2023-11-19T10:10:00;6.97;;;2.10;;
12910;SDS011;6523;49.758;6.120;2023-11-19T10:12:29;10.10;;;2.03;;
12910;SDS011;6523;49.758;6.120;2023-11-19T10:14:56;13.37;;;2.20;;
12910;SDS011;6523;49.758;6.120;2023-11-19T10:17:27;14.37;;;2.07;;
12910;SDS011;6523;49.758;6.120;2023-11-19T10:19:58;6.67;;;2.07;;
12910;SDS011;6523;49.758;6.120;2023-11-19T10:22:24;10.37;;;2.30;;
12910;SDS011;6523;49.758;6.120;2023-11-19T10:24:51;7.50;;;2.20;;
12910;SDS011;6523;49.758;6.120;2023-11-19T10:27:17;7.37;;;2.30;;
12910;SDS011;6523;49.758;6.120;2023-11-19T10:29:46;7.47;;;1.93;;
12910;SDS011;6523;49.758;6.120;2023-11-19T10:32:12;9.30;;;1.87;;
12910;SDS011;6523;49.758;6.120;2023-11-19T10:34:40;11.63;;;2.37;;
12910;SDS011;6523;49.758;6.120;2023-11-19T10:37:06;7.03;;;2.43;;
12910;SDS011;6523;49.758;6.120;2023-11-19T10:39:51;7.87;;;2.43;;
12910;SDS011;6523;49.758;6.120;2023-11-19T10:42:20;10.37;;;2.50;;
12910;SDS011;6523;49.758;6.120;2023-11-19T10:44:45;5.93;;;2.43;;
12910;SDS011;6523;49.758;6.120;2023-11-19T10:47:11;9.23;;;2.63;;
12910;SDS011;6523;49.758;6.120;2023-11-19T10:49:39;14.43;;;2.93;;
12910;SDS011;6523;49.758;6.120;2023-11-19T10:52:05;8.47;;;2.13;;
12910;SDS011;6523;49.758;6.120;2023-11-19T10:54:33;9.93;;;2.43;;
12910;SDS011;6523;49.758;6.120;2023-11-19T10:56:59;10.07;;;2.10;;
12910;SDS011;6523;49.758;6.120;2023-11-19T10:59:28;8.63;;;1.97;;
12910;SDS011;6523;49.758;6.120;2023-11-19T11:01:56;6.17;;;2.10;;
12910;SDS011;6523;49.758;6.120;2023-11-19T11:04:25;8.27;;;2.00;;
12910;SDS011;6523;49.758;6.120;2023-11-19T11:06:56;7.73;;;1.70;;
12910;SDS011;6523;49.758;6.120;2023-11-19T11:09:26;4.60;;;1.67;;
12910;SDS011;6523;49.758;6.120;2023-11-19T11:11:51;6.03;;;1.90;;
12910;SDS011;6523;49.758;6.120;2023-11-19T11:14:19;8.07;;;2.43;;
12910;SDS011;6523;49.758;6.120;2023-11-19T11:16:47;7.03;;;2.50;;
12910;SDS011;6523;49.758;6.120;2023-11-19T11:19:14;6.83;;;2.03;;
12910;SDS011;6523;49.758;6.120;2023-11-19T11:21:42;7.17;;;2.13;;
12910;SDS011;6523;49.758;6.120;2023-11-19T11:24:58;11.13;;;2.70;;
12910;SDS011;6523;49.758;6.120;2023-11-19T11:30:23;8.20;;;2.30;;
12910;SDS011;6523;49.758;6.120;2023-11-19T11:35:55;8.33;;;2.67;;
12910;SDS011;6523;49.758;6.120;2023-11-19T11:38:45;10.33;;;2.63;;
12910;SDS011;6523;49.758;6.120;2023-11-19T11:41:15;8.50;;;2.10;;
12910;SDS011;6523;49.758;6.120;2023-11-19T11:43:44;6.43;;;2.40;;
12910;SDS011;6523;49.758;6.120;2023-11-19T11:46:56;9.27;;;2.23;;
12910;SDS011;6523;49.758;6.120;2023-11-19T11:49:01;8.33;;;2.13;;
12910;SDS011;6523;49.758;6.120;2023-11-19T11:54:11;6.50;;;1.93;;
12910;SDS011;6523;49.758;6.120;2023-11-19T11:57:03;8.47;;;2.43;;
12910;SDS011;6523;49.758;6.120;2023-11-19T11:59:42;12.27;;;2.10;;
12910;SDS011;6523;49.758;6.120;2023-11-19T12:02:13;8.60;;;1.87;;
12910;SDS011;6523;49.758;6.120;2023-11-19T12:04:41;9.73;;;2.27;;
12910;SDS011;6523;49.758;6.120;2023-11-19T12:07:14;6.60;;;2.17;;
12910;SDS011;6523;49.758;6.120;2023-11-19T12:09:45;10.00;;;2.30;;
12910;SDS011;6523;49.758;6.120;2023-11-19T12:20:14;9.83;;;2.77;;
12910;SDS011;6523;49.758;6.120;2023-11-19T12:22:41;7.17;;;2.30;;
12910;SDS011;6523;49.758;6.120;2023-11-19T12:25:09;9.47;;;2.60;;
12910;SDS011;6523;49.758;6.120;2023-11-19T12:27:36;9.13;;;2.33;;
12910;SDS011;6523;49.758;6.120;2023-11-19T12:30:02;8.47;;;2.30;;
12910;SDS011;6523;49.758;6.120;2023-11-19T12:32:40;9.80;;;2.00;;
12910;SDS011;6523;49.758;6.120;2023-11-19T12:35:07;5.90;;;1.63;;
12910;SDS011;6523;49.758;6.120;2023-11-19T12:37:38;6.57;;;1.90;;
12910;SDS011;6523;49.758;6.120;2023-11-19T12:40:14;6.43;;;2.47;;
12910;SDS011;6523;49.758;6.120;2023-11-19T12:42:42;7.40;;;1.93;;
12910;SDS011;6523;49.758;6.120;2023-11-19T12:45:08;8.80;;;2.10;;
12910;SDS011;6523;49.758;6.120;2023-11-19T12:47:35;6.87;;;2.00;;
12910;SDS011;6523;49.758;6.120;2023-11-19T12:50:02;7.83;;;2.00;;
12910;SDS011;6523;49.758;6.120;2023-11-19T12:52:28;6.40;;;1.80;;
12910;SDS011;6523;49.758;6.120;2023-11-19T12:54:55;6.87;;;2.00;;
12910;SDS011;6523;49.758;6.120;2023-11-19T12:57:20;7.90;;;2.33;;
12910;SDS011;6523;49.758;6.120;2023-11-19T12:59:55;7.30;;;1.90;;
12910;SDS011;6523;49.758;6.120;2023-11-19T13:02:33;7.80;;;1.90;;
12910;SDS011;6523;49.758;6.120;2023-11-19T13:05:21;7.63;;;2.37;;
12910;SDS011;6523;49.758;6.120;2023-11-19T13:08:00;6.33;;;2.03;;
12910;SDS011;6523;49.758;6.120;2023-11-19T13:10:30;6.03;;;2.37;;
12910;SDS011;6523;49.758;6.120;2023-11-19T13:13:14;8.13;;;2.30;;
12910;SDS011;6523;49.758;6.120;2023-11-19T13:15:40;6.60;;;2.40;;
12910;SDS011;6523;49.758;6.120;2023-11-19T13:18:06;6.07;;;1.53;;
12910;SDS011;6523;49.758;6.120;2023-11-19T13:20:31;5.60;;;1.87;;
12910;SDS011;6523;49.758;6.120;2023-11-19T13:22:58;8.77;;;2.47;;
12910;SDS011;6523;49.758;6.120;2023-11-19T13:25:32;10.83;;;2.60;;
12910;SDS011;6523;49.758;6.120;2023-11-19T13:27:58;8.37;;;1.77;;
12910;SDS011;6523;49.758;6.120;2023-11-19T13:30:24;5.87;;;1.70;;
12910;SDS011;6523;49.758;6.120;2023-11-19T13:32:51;6.37;;;2.00;;
12910;SDS011;6523;49.758;6.120;2023-11-19T13:35:17;6.10;;;1.60;;
12910;SDS011;6523;49.758;6.120;2023-11-19T13:37:46;5.80;;;1.90;;
12910;SDS011;6523;49.758;6.120;2023-11-19T13:40:12;5.50;;;1.70;;
12910;SDS011;6523;49.758;6.120;2023-11-19T13:42:43;10.63;;;2.13;;
12910;SDS011;6523;49.758;6.120;2023-11-19T13:45:12;4.57;;;1.80;;
12910;SDS011;6523;49.758;6.120;2023-11-19T13:47:39;8.90;;;2.10;;
12910;SDS011;6523;49.758;6.120;2023-11-19T13:50:07;7.47;;;2.03;;
12910;SDS011;6523;49.758;6.120;2023-11-19T13:52:37;8.13;;;2.20;;
12910;SDS011;6523;49.758;6.120;2023-11-19T13:55:04;6.07;;;1.60;;
12910;SDS011;6523;49.758;6.120;2023-11-19T13:57:37;5.67;;;1.57;;
12910;SDS011;6523;49.758;6.120;2023-11-19T14:00:04;8.77;;;2.20;;
12910;SDS011;6523;49.758;6.120;2023-11-19T14:02:31;9.10;;;2.10;;
12910;SDS011;6523;49.758;6.120;2023-11-19T14:05:00;11.23;;;2.50;;
12910;SDS011;6523;49.758;6.120;2023-11-19T14:07:26;7.57;;;1.70;;
12910;SDS011;6523;49.758;6.120;2023-11-19T14:09:52;7.73;;;2.63;;
12910;SDS011;6523;49.758;6.120;2023-11-19T14:12:19;5.03;;;1.50;;
12910;SDS011;6523;49.758;6.120;2023-11-19T14:14:45;8.00;;;2.37;;
12910;SDS011;6523;49.758;6.120;2023-11-19T14:17:10;10.93;;;2.17;;
12910;SDS011;6523;49.758;6.120;2023-11-19T14:19:36;8.50;;;2.27;;
12910;SDS011;6523;49.758;6.120;2023-11-19T14:22:03;11.43;;;2.50;;
12910;SDS011;6523;49.758;6.120;2023-11-19T14:24:29;7.43;;;2.23;;
12910;SDS011;6523;49.758;6.120;2023-11-19T14:26:54;9.30;;;2.37;;
12910;SDS011;6523;49.758;6.120;2023-11-19T14:29:23;7.97;;;2.27;;
12910;SDS011;6523;49.758;6.120;2023-11-19T14:31:48;6.30;;;1.63;;
12910;SDS011;6523;49.758;6.120;2023-11-19T14:34:14;5.03;;;1.93;;
12910;SDS011;6523;49.758;6.120;2023-11-19T14:36:39;9.23;;;2.60;;
12910;SDS011;6523;49.758;6.120;2023-11-19T14:39:05;7.20;;;2.00;;
12910;SDS011;6523;49.758;6.120;2023-11-19T14:41:32;7.30;;;2.27;;
12910;SDS011;6523;49.758;6.120;2023-11-19T14:43:57;6.77;;;1.90;;
12910;SDS011;6523;49.758;6.120;2023-11-19T14:46:23;7.67;;;2.10;;
12910;SDS011;6523;49.758;6.120;2023-11-19T14:48:48;7.67;;;2.00;;
12910;SDS011;6523;49.758;6.120;2023-11-19T14:51:14;9.40;;;2.03;;
12910;SDS011;6523;49.758;6.120;2023-11-19T14:53:39;7.50;;;2.33;;
12910;SDS011;6523;49.758;6.120;2023-11-19T14:56:05;9.47;;;2.30;;
12910;SDS011;6523;49.758;6.120;2023-11-19T14:58:35;8.40;;;2.37;;
12910;SDS011;6523;49.758;6.120;2023-11-19T15:01:00;11.90;;;2.63;;
12910;SDS011;6523;49.758;6.120;2023-11-19T15:03:29;5.30;;;1.70;;
12910;SDS011;6523;49.758;6.120;2023-11-19T15:05:55;9.70;;;2.30;;
12910;SDS011;6523;49.758;6.120;2023-11-19T15:08:21;7.57;;;2.07;;
12910;SDS011;6523;49.758;6.120;2023-11-19T15:10:47;9.37;;;2.40;;
12910;SDS011;6523;49.758;6.120;2023-11-19T15:13:12;14.70;;;2.60;;
12910;SDS011;6523;49.758;6.120;2023-11-19T15:15:38;11.73;;;2.20;;
12910;SDS011;6523;49.758;6.120;2023-11-19T15:18:04;8.70;;;2.20;;